sensor_id;sensor_type;location;lat;lon;timestamp;temperature;humidity
3100;DHT22;1560;52.746;13.474;2023-06-14T00:00:18;14.50;99.90
3100;DHT22;1560;52.746;13.474;2023-06-14T00:05:23;14.40;99.90
3100;DHT22;1560;52.746;13.474;2023-06-14T00:07:52;14.30;99.90
3100;DHT22;1560;52.746;13.474;2023-06-14T00:10:21;14.20;99.90
3100;DHT22;1560;52.746;13.474;2023-06-14T00:15:26;14.30;99.90
3100;DHT22;1560;52.746;13.474;2023-06-14T00:17:55;14.30;99.90
3100;DHT22;1560;52.746;13.474;2023-06-14T00:20:24;14.40;99.90
3100;DHT22;1560;52.746;13.474;2023-06-14T00:25:29;14.30;99.90
3100;DHT22;1560;52.746;13.474;2023-06-14T00:27:58;14.30;99.90
3100;DHT22;1560;52.746;13.474;2023-06-14T00:30:27;14.30;99.90
3100;DHT22;1560;52.746;13.474;2023-06-14T00:32:58;14.30;99.90
3100;DHT22;1560;52.746;13.474;2023-06-14T00:35:27;14.30;99.90
3100;DHT22;1560;52.746;13.474;2023-06-14T00:37:56;14.30;99.90
3100;DHT22;1560;52.746;13.474;2023-06-14T00:40:25;14.20;99.90
3100;DHT22;1560;52.746;13.474;2023-06-14T00:42:53;14.20;99.90
3100;DHT22;1560;52.746;13.474;2023-06-14T00:45:22;14.20;99.90
3100;DHT22;1560;52.746;13.474;2023-06-14T00:50:27;14.20;99.90
3100;DHT22;1560;52.746;13.474;2023-06-14T00:52:59;14.00;99.90
3100;DHT22;1560;52.746;13.474;2023-06-14T00:55:29;13.80;99.90
3100;DHT22;1560;52.746;13.474;2023-06-14T01:00:36;13.70;99.90
3100;DHT22;1560;52.746;13.474;2023-06-14T01:03:05;13.70;99.90
3100;DHT22;1560;52.746;13.474;2023-06-14T01:05:35;13.80;99.90
3100;DHT22;1560;52.746;13.474;2023-06-14T01:08:14;13.80;99.90
3100;DHT22;1560;52.746;13.474;2023-06-14T01:10:45;13.80;99.90
3100;DHT22;1560;52.746;13.474;2023-06-14T01:13:23;13.70;99.90
3100;DHT22;1560;52.746;13.474;2023-06-14T01:18:30;13.70;99.90
3100;DHT22;1560;52.746;13.474;2023-06-14T01:21:01;13.70;99.90
3100;DHT22;1560;52.746;13.474;2023-06-14T01:26:08;13.30;99.90
3100;DHT22;1560;52.746;13.474;2023-06-14T01:31:17;13.00;99.90
3100;DHT22;1560;52.746;13.474;2023-06-14T01:33:44;13.10;99.90
3100;DHT22;1560;52.746;13.474;2023-06-14T01:36:14;13.10;99.90
3100;DHT22;1560;52.746;13.474;2023-06-14T01:41:24;13.10;99.90
3100;DHT22;1560;52.746;13.474;2023-06-14T01:46:32;13.20;99.90
3100;DHT22;1560;52.746;13.474;2023-06-14T01:49:01;13.20;99.90
3100;DHT22;1560;52.746;13.474;2023-06-14T01:51:30;13.20;99.90
3100;DHT22;1560;52.746;13.474;2023-06-14T01:53:59;13.20;99.90
3100;DHT22;1560;52.746;13.474;2023-06-14T01:56:28;13.30;99.90
3100;DHT22;1560;52.746;13.474;2023-06-14T02:01:33;13.20;99.90
3100;DHT22;1560;52.746;13.474;2023-06-14T02:04:02;13.10;99.90
3100;DHT22;1560;52.746;13.474;2023-06-14T02:06:31;12.90;99.90
3100;DHT22;1560;52.746;13.474;2023-06-14T02:09:01;12.90;99.90
3100;DHT22;1560;52.746;13.474;2023-06-14T02:11:31;12.90;99.90
3100;DHT22;1560;52.746;13.474;2023-06-14T02:16:36;13.10;99.90
3100;DHT22;1560;52.746;13.474;2023-06-14T02:21:42;13.00;99.90
3100;DHT22;1560;52.746;13.474;2023-06-14T02:24:11;13.00;99.90
3100;DHT22;1560;52.746;13.474;2023-06-14T02:26:41;13.00;99.90
3100;DHT22;1560;52.746;13.474;2023-06-14T02:29:10;13.00;99.90
3100;DHT22;1560;52.746;13.474;2023-06-14T02:31:41;13.10;99.90
3100;DHT22;1560;52.746;13.474;2023-06-14T02:34:10;13.10;99.90
3100;DHT22;1560;52.746;13.474;2023-06-14T02:36:39;13.10;99.90
3100;DHT22;1560;52.746;13.474;2023-06-14T02:39:09;13.10;99.90
3100;DHT22;1560;52.746;13.474;2023-06-14T02:41:38;13.10;99.90
3100;DHT22;1560;52.746;13.474;2023-06-14T02:44:07;13.00;99.90
3100;DHT22;1560;52.746;13.474;2023-06-14T02:46:36;13.00;99.90
3100;DHT22;1560;52.746;13.474;2023-06-14T02:51:41;12.90;99.90
3100;DHT22;1560;52.746;13.474;2023-06-14T02:54:10;12.80;99.90
3100;DHT22;1560;52.746;13.474;2023-06-14T02:56:39;12.80;99.90
3100;DHT22;1560;52.746;13.474;2023-06-14T03:01:44;12.80;99.90
3100;DHT22;1560;52.746;13.474;2023-06-14T03:04:13;12.80;99.90
3100;DHT22;1560;52.746;13.474;2023-06-14T03:06:42;12.80;99.90
3100;DHT22;1560;52.746;13.474;2023-06-14T03:09:12;12.80;99.90
3100;DHT22;1560;52.746;13.474;2023-06-14T03:11:42;12.70;99.90
3100;DHT22;1560;52.746;13.474;2023-06-14T03:14:11;12.60;99.90
3100;DHT22;1560;52.746;13.474;2023-06-14T03:16:40;12.50;99.90
3100;DHT22;1560;52.746;13.474;2023-06-14T03:21:46;12.50;99.90
3100;DHT22;1560;52.746;13.474;2023-06-14T03:24:15;12.50;99.90
3100;DHT22;1560;52.746;13.474;2023-06-14T03:26:45;12.50;99.90
3100;DHT22;1560;52.746;13.474;2023-06-14T03:29:14;12.50;99.90
3100;DHT22;1560;52.746;13.474;2023-06-14T03:34:21;12.50;99.90
3100;DHT22;1560;52.746;13.474;2023-06-14T03:39:26;12.60;99.90
3100;DHT22;1560;52.746;13.474;2023-06-14T03:41:55;12.70;99.90
3100;DHT22;1560;52.746;13.474;2023-06-14T03:44:26;12.60;99.90
3100;DHT22;1560;52.746;13.474;2023-06-14T03:46:54;12.60;99.90
3100;DHT22;1560;52.746;13.474;2023-06-14T03:49:23;12.30;99.90
3100;DHT22;1560;52.746;13.474;2023-06-14T03:51:52;12.30;99.90
3100;DHT22;1560;52.746;13.474;2023-06-14T03:54:21;12.30;99.90
3100;DHT22;1560;52.746;13.474;2023-06-14T03:56:50;12.30;99.90
3100;DHT22;1560;52.746;13.474;2023-06-14T04:01:56;12.20;99.90
3100;DHT22;1560;52.746;13.474;2023-06-14T04:04:24;12.40;99.90
3100;DHT22;1560;52.746;13.474;2023-06-14T04:06:55;12.40;99.90
3100;DHT22;1560;52.746;13.474;2023-06-14T04:09:25;12.50;99.90
3100;DHT22;1560;52.746;13.474;2023-06-14T04:11:54;12.50;99.90
3100;DHT22;1560;52.746;13.474;2023-06-14T04:14:23;12.60;99.90
3100;DHT22;1560;52.746;13.474;2023-06-14T04:16:52;12.40;99.90
3100;DHT22;1560;52.746;13.474;2023-06-14T04:19:21;12.40;99.90
3100;DHT22;1560;52.746;13.474;2023-06-14T04:21:50;12.50;99.90
3100;DHT22;1560;52.746;13.474;2023-06-14T04:24:19;12.50;99.90
3100;DHT22;1560;52.746;13.474;2023-06-14T04:26:48;12.50;99.90
3100;DHT22;1560;52.746;13.474;2023-06-14T04:29:19;12.50;99.90
3100;DHT22;1560;52.746;13.474;2023-06-14T04:31:48;12.40;99.90
3100;DHT22;1560;52.746;13.474;2023-06-14T04:34:19;12.50;99.90
3100;DHT22;1560;52.746;13.474;2023-06-14T04:39:25;12.50;99.90
3100;DHT22;1560;52.746;13.474;2023-06-14T04:41:55;12.60;99.90
3100;DHT22;1560;52.746;13.474;2023-06-14T04:44:25;12.60;99.90
3100;DHT22;1560;52.746;13.474;2023-06-14T04:46:56;12.70;99.90
3100;DHT22;1560;52.746;13.474;2023-06-14T04:49:26;12.70;99.90
3100;DHT22;1560;52.746;13.474;2023-06-14T04:54:33;12.90;99.90
3100;DHT22;1560;52.746;13.474;2023-06-14T04:59:42;13.00;99.90
3100;DHT22;1560;52.746;13.474;2023-06-14T05:04:48;13.00;99.90
3100;DHT22;1560;52.746;13.474;2023-06-14T05:07:17;13.00;99.90
3100;DHT22;1560;52.746;13.474;2023-06-14T05:09:47;13.00;99.90
3100;DHT22;1560;52.746;13.474;2023-06-14T05:12:16;13.00;99.90
3100;DHT22;1560;52.746;13.474;2023-06-14T05:14:46;13.10;99.90
3100;DHT22;1560;52.746;13.474;2023-06-14T05:19:51;13.20;99.90
3100;DHT22;1560;52.746;13.474;2023-06-14T05:22:20;13.20;99.90
3100;DHT22;1560;52.746;13.474;2023-06-14T05:24:49;13.30;99.90
3100;DHT22;1560;52.746;13.474;2023-06-14T05:27:18;13.30;99.90
3100;DHT22;1560;52.746;13.474;2023-06-14T05:29:47;13.40;99.90
3100;DHT22;1560;52.746;13.474;2023-06-14T05:34:52;13.50;99.90
3100;DHT22;1560;52.746;13.474;2023-06-14T05:37:21;13.50;99.90
3100;DHT22;1560;52.746;13.474;2023-06-14T05:39:49;13.50;99.90
3100;DHT22;1560;52.746;13.474;2023-06-14T05:44:54;13.60;99.90
3100;DHT22;1560;52.746;13.474;2023-06-14T05:49:59;13.70;99.90
3100;DHT22;1560;52.746;13.474;2023-06-14T05:52:28;13.80;99.90
3100;DHT22;1560;52.746;13.474;2023-06-14T05:54:59;13.80;99.90
3100;DHT22;1560;52.746;13.474;2023-06-14T05:57:28;13.90;99.90
3100;DHT22;1560;52.746;13.474;2023-06-14T06:02:34;14.00;99.90
3100;DHT22;1560;52.746;13.474;2023-06-14T06:07:40;14.10;99.90
3100;DHT22;1560;52.746;13.474;2023-06-14T06:12:48;14.30;99.90
3100;DHT22;1560;52.746;13.474;2023-06-14T06:15:18;14.30;99.90
3100;DHT22;1560;52.746;13.474;2023-06-14T06:17:47;14.40;99.90
3100;DHT22;1560;52.746;13.474;2023-06-14T06:20:16;14.40;99.90
3100;DHT22;1560;52.746;13.474;2023-06-14T06:22:45;14.40;99.90
3100;DHT22;1560;52.746;13.474;2023-06-14T06:25:14;14.50;99.90
3100;DHT22;1560;52.746;13.474;2023-06-14T06:27:44;14.50;99.90
3100;DHT22;1560;52.746;13.474;2023-06-14T06:30:14;14.60;99.90
3100;DHT22;1560;52.746;13.474;2023-06-14T06:32:43;14.60;99.90
3100;DHT22;1560;52.746;13.474;2023-06-14T06:37:48;14.80;99.90
3100;DHT22;1560;52.746;13.474;2023-06-14T06:40:17;14.90;99.90
3100;DHT22;1560;52.746;13.474;2023-06-14T06:42:46;15.00;99.90
3100;DHT22;1560;52.746;13.474;2023-06-14T06:45:15;15.10;99.90
3100;DHT22;1560;52.746;13.474;2023-06-14T06:47:43;15.20;99.90
3100;DHT22;1560;52.746;13.474;2023-06-14T06:52:48;15.30;99.90
3100;DHT22;1560;52.746;13.474;2023-06-14T06:55:17;15.40;99.90
3100;DHT22;1560;52.746;13.474;2023-06-14T06:57:46;15.50;99.90
3100;DHT22;1560;52.746;13.474;2023-06-14T07:00:16;15.50;99.90
3100;DHT22;1560;52.746;13.474;2023-06-14T07:05:22;15.60;99.90
3100;DHT22;1560;52.746;13.474;2023-06-14T07:07:50;15.60;99.90
3100;DHT22;1560;52.746;13.474;2023-06-14T07:12:55;15.80;99.90
3100;DHT22;1560;52.746;13.474;2023-06-14T07:15:24;15.90;99.90
3100;DHT22;1560;52.746;13.474;2023-06-14T07:17:53;16.00;58.30
3100;DHT22;1560;52.746;13.474;2023-06-14T07:23:00;16.20;55.40
3100;DHT22;1560;52.746;13.474;2023-06-14T07:25:29;16.30;10.20
3100;DHT22;1560;52.746;13.474;2023-06-14T07:27:58;16.30;17.10
3100;DHT22;1560;52.746;13.474;2023-06-14T07:33:04;16.40;75.10
3100;DHT22;1560;52.746;13.474;2023-06-14T07:35:33;16.50;18.70
3100;DHT22;1560;52.746;13.474;2023-06-14T07:38:02;16.60;28.30
3100;DHT22;1560;52.746;13.474;2023-06-14T07:40:30;16.70;52.00
3100;DHT22;1560;52.746;13.474;2023-06-14T07:42:59;16.90;23.80
3100;DHT22;1560;52.746;13.474;2023-06-14T07:45:29;17.20;1.00
3100;DHT22;1560;52.746;13.474;2023-06-14T07:50:36;17.40;1.00
3100;DHT22;1560;52.746;13.474;2023-06-14T07:53:05;17.50;1.00
3100;DHT22;1560;52.746;13.474;2023-06-14T07:55:34;17.70;1.00
3100;DHT22;1560;52.746;13.474;2023-06-14T07:58:04;17.80;1.00
3100;DHT22;1560;52.746;13.474;2023-06-14T08:00:33;17.90;1.00
3100;DHT22;1560;52.746;13.474;2023-06-14T08:05:38;18.00;1.00
3100;DHT22;1560;52.746;13.474;2023-06-14T08:08:07;18.00;1.00
3100;DHT22;1560;52.746;13.474;2023-06-14T08:10:36;18.10;1.00
3100;DHT22;1560;52.746;13.474;2023-06-14T08:13:04;18.10;1.00
3100;DHT22;1560;52.746;13.474;2023-06-14T08:15:33;18.20;1.00
3100;DHT22;1560;52.746;13.474;2023-06-14T08:18:02;18.20;1.00
3100;DHT22;1560;52.746;13.474;2023-06-14T08:20:31;18.50;1.00
3100;DHT22;1560;52.746;13.474;2023-06-14T08:23:03;18.60;1.00
3100;DHT22;1560;52.746;13.474;2023-06-14T08:25:32;18.70;1.00
3100;DHT22;1560;52.746;13.474;2023-06-14T08:30:37;18.90;1.00
3100;DHT22;1560;52.746;13.474;2023-06-14T08:33:05;18.90;1.00
3100;DHT22;1560;52.746;13.474;2023-06-14T08:35:34;18.90;1.00
3100;DHT22;1560;52.746;13.474;2023-06-14T08:38:04;18.90;1.00
3100;DHT22;1560;52.746;13.474;2023-06-14T08:40:36;18.90;1.00
3100;DHT22;1560;52.746;13.474;2023-06-14T08:45:41;18.80;1.00
3100;DHT22;1560;52.746;13.474;2023-06-14T08:48:10;18.90;1.00
3100;DHT22;1560;52.746;13.474;2023-06-14T08:50:42;18.80;1.00
3100;DHT22;1560;52.746;13.474;2023-06-14T08:55:48;18.70;1.00
3100;DHT22;1560;52.746;13.474;2023-06-14T09:00:55;18.70;1.00
3100;DHT22;1560;52.746;13.474;2023-06-14T09:03:25;18.60;99.90
3100;DHT22;1560;52.746;13.474;2023-06-14T09:08:32;18.60;99.90
3100;DHT22;1560;52.746;13.474;2023-06-14T09:13:38;18.70;1.00
3100;DHT22;1560;52.746;13.474;2023-06-14T09:16:07;18.80;1.00
3100;DHT22;1560;52.746;13.474;2023-06-14T09:18:37;18.80;1.00
3100;DHT22;1560;52.746;13.474;2023-06-14T09:21:07;18.90;99.90
3100;DHT22;1560;52.746;13.474;2023-06-14T09:23:37;19.00;1.00
3100;DHT22;1560;52.746;13.474;2023-06-14T09:28:47;19.20;99.90
3100;DHT22;1560;52.746;13.474;2023-06-14T09:31:17;19.20;1.00
3100;DHT22;1560;52.746;13.474;2023-06-14T09:33:47;19.30;1.00
3100;DHT22;1560;52.746;13.474;2023-06-14T09:36:17;19.30;1.00
3100;DHT22;1560;52.746;13.474;2023-06-14T09:38:53;19.50;1.00
3100;DHT22;1560;52.746;13.474;2023-06-14T09:43:59;19.60;1.00
3100;DHT22;1560;52.746;13.474;2023-06-14T09:46:30;19.70;1.00
3100;DHT22;1560;52.746;13.474;2023-06-14T09:49:00;19.80;1.00
3100;DHT22;1560;52.746;13.474;2023-06-14T09:51:30;19.80;1.00
3100;DHT22;1560;52.746;13.474;2023-06-14T09:57:01;19.80;1.00
3100;DHT22;1560;52.746;13.474;2023-06-14T10:02:10;19.80;1.00
3100;DHT22;1560;52.746;13.474;2023-06-14T10:05:02;19.80;1.00
3100;DHT22;1560;52.746;13.474;2023-06-14T10:07:38;19.70;1.00
3100;DHT22;1560;52.746;13.474;2023-06-14T10:10:08;19.70;1.00
3100;DHT22;1560;52.746;13.474;2023-06-14T10:15:19;19.90;1.00
3100;DHT22;1560;52.746;13.474;2023-06-14T10:17:52;19.90;1.00
3100;DHT22;1560;52.746;13.474;2023-06-14T10:20:27;19.90;1.00
3100;DHT22;1560;52.746;13.474;2023-06-14T10:23:01;20.00;1.00
3100;DHT22;1560;52.746;13.474;2023-06-14T10:28:17;20.20;99.90
3100;DHT22;1560;52.746;13.474;2023-06-14T10:31:08;20.30;99.90
3100;DHT22;1560;52.746;13.474;2023-06-14T10:33:40;20.40;99.90
3100;DHT22;1560;52.746;13.474;2023-06-14T10:36:24;20.40;99.90
3100;DHT22;1560;52.746;13.474;2023-06-14T10:38:43;20.50;99.90
3100;DHT22;1560;52.746;13.474;2023-06-14T10:43:48;20.80;99.90
3100;DHT22;1560;52.746;13.474;2023-06-14T10:46:18;21.00;99.90
3100;DHT22;1560;52.746;13.474;2023-06-14T10:48:49;21.40;99.90
3100;DHT22;1560;52.746;13.474;2023-06-14T10:53:57;22.50;99.90
3100;DHT22;1560;52.746;13.474;2023-06-14T10:56:29;22.80;99.90
3100;DHT22;1560;52.746;13.474;2023-06-14T11:01:38;22.80;99.90
3100;DHT22;1560;52.746;13.474;2023-06-14T11:06:50;23.10;99.90
3100;DHT22;1560;52.746;13.474;2023-06-14T11:12:11;23.30;99.90
3100;DHT22;1560;52.746;13.474;2023-06-14T11:14:41;23.20;99.90
3100;DHT22;1560;52.746;13.474;2023-06-14T11:17:11;23.40;99.90
3100;DHT22;1560;52.746;13.474;2023-06-14T11:19:40;23.60;99.90
3100;DHT22;1560;52.746;13.474;2023-06-14T11:22:09;23.60;99.90
3100;DHT22;1560;52.746;13.474;2023-06-14T11:24:38;23.60;99.90
3100;DHT22;1560;52.746;13.474;2023-06-14T11:27:07;23.50;99.90
3100;DHT22;1560;52.746;13.474;2023-06-14T11:29:36;23.30;99.90
3100;DHT22;1560;52.746;13.474;2023-06-14T11:32:08;23.30;99.90
3100;DHT22;1560;52.746;13.474;2023-06-14T11:34:39;23.80;99.90
3100;DHT22;1560;52.746;13.474;2023-06-14T11:39:45;24.10;99.90
3100;DHT22;1560;52.746;13.474;2023-06-14T11:42:16;23.90;99.90
3100;DHT22;1560;52.746;13.474;2023-06-14T11:44:47;23.60;99.90
3100;DHT22;1560;52.746;13.474;2023-06-14T11:47:16;23.40;99.90
3100;DHT22;1560;52.746;13.474;2023-06-14T11:49:44;23.40;99.90
3100;DHT22;1560;52.746;13.474;2023-06-14T11:52:14;23.10;99.90
3100;DHT22;1560;52.746;13.474;2023-06-14T11:54:43;22.90;99.90
3100;DHT22;1560;52.746;13.474;2023-06-14T11:57:12;22.80;99.90
3100;DHT22;1560;52.746;13.474;2023-06-14T11:59:41;22.80;99.90
3100;DHT22;1560;52.746;13.474;2023-06-14T12:02:14;22.80;99.90
3100;DHT22;1560;52.746;13.474;2023-06-14T12:04:44;23.20;99.90
3100;DHT22;1560;52.746;13.474;2023-06-14T12:10:06;24.30;99.90
3100;DHT22;1560;52.746;13.474;2023-06-14T12:15:14;24.00;99.90
3100;DHT22;1560;52.746;13.474;2023-06-14T12:17:45;24.10;99.90
3100;DHT22;1560;52.746;13.474;2023-06-14T12:22:54;23.70;99.90
3100;DHT22;1560;52.746;13.474;2023-06-14T12:28:09;23.30;99.90
3100;DHT22;1560;52.746;13.474;2023-06-14T12:33:15;23.70;99.90
3100;DHT22;1560;52.746;13.474;2023-06-14T12:38:21;23.70;99.90
3100;DHT22;1560;52.746;13.474;2023-06-14T12:40:50;23.80;99.90
3100;DHT22;1560;52.746;13.474;2023-06-14T12:43:20;23.80;99.90
3100;DHT22;1560;52.746;13.474;2023-06-14T12:45:49;23.80;99.90
3100;DHT22;1560;52.746;13.474;2023-06-14T12:50:55;23.80;99.90
3100;DHT22;1560;52.746;13.474;2023-06-14T12:53:24;24.10;99.90
3100;DHT22;1560;52.746;13.474;2023-06-14T12:55:53;24.30;99.90
3100;DHT22;1560;52.746;13.474;2023-06-14T13:01:00;24.20;99.90
3100;DHT22;1560;52.746;13.474;2023-06-14T13:03:29;24.20;99.90
3100;DHT22;1560;52.746;13.474;2023-06-14T13:08:35;23.90;99.90
3100;DHT22;1560;52.746;13.474;2023-06-14T13:13:40;24.00;99.90
3100;DHT22;1560;52.746;13.474;2023-06-14T13:16:09;23.80;99.90
3100;DHT22;1560;52.746;13.474;2023-06-14T13:21:14;23.20;99.90
3100;DHT22;1560;52.746;13.474;2023-06-14T13:23:43;22.90;99.90
3100;DHT22;1560;52.746;13.474;2023-06-14T13:26:12;22.60;99.90
3100;DHT22;1560;52.746;13.474;2023-06-14T13:31:17;22.20;99.90
3100;DHT22;1560;52.746;13.474;2023-06-14T13:33:46;22.10;99.90
3100;DHT22;1560;52.746;13.474;2023-06-14T13:36:15;22.00;99.90
3100;DHT22;1560;52.746;13.474;2023-06-14T13:38:44;21.90;99.90
3100;DHT22;1560;52.746;13.474;2023-06-14T13:41:13;21.90;99.90
3100;DHT22;1560;52.746;13.474;2023-06-14T13:46:18;21.70;99.90
3100;DHT22;1560;52.746;13.474;2023-06-14T13:48:47;21.70;99.90
3100;DHT22;1560;52.746;13.474;2023-06-14T13:51:17;21.80;99.90
3100;DHT22;1560;52.746;13.474;2023-06-14T13:53:47;21.80;99.90
3100;DHT22;1560;52.746;13.474;2023-06-14T13:56:17;21.80;99.90
3100;DHT22;1560;52.746;13.474;2023-06-14T14:01:22;21.60;99.90
3100;DHT22;1560;52.746;13.474;2023-06-14T14:03:53;21.60;99.90
3100;DHT22;1560;52.746;13.474;2023-06-14T14:06:22;21.60;99.90
3100;DHT22;1560;52.746;13.474;2023-06-14T14:08:51;21.70;99.90
3100;DHT22;1560;52.746;13.474;2023-06-14T14:11:20;21.70;99.90
3100;DHT22;1560;52.746;13.474;2023-06-14T14:13:49;21.60;99.90
3100;DHT22;1560;52.746;13.474;2023-06-14T14:16:18;21.60;99.90
3100;DHT22;1560;52.746;13.474;2023-06-14T14:21:23;21.50;99.90
3100;DHT22;1560;52.746;13.474;2023-06-14T14:23:52;21.50;99.90
3100;DHT22;1560;52.746;13.474;2023-06-14T14:26:21;21.40;99.90
3100;DHT22;1560;52.746;13.474;2023-06-14T14:28:51;21.50;99.90
3100;DHT22;1560;52.746;13.474;2023-06-14T14:31:20;21.40;99.90
3100;DHT22;1560;52.746;13.474;2023-06-14T14:33:49;21.30;99.90
3100;DHT22;1560;52.746;13.474;2023-06-14T14:36:18;21.30;99.90
3100;DHT22;1560;52.746;13.474;2023-06-14T14:41:23;21.30;99.90
3100;DHT22;1560;52.746;13.474;2023-06-14T14:43:52;21.30;99.90
3100;DHT22;1560;52.746;13.474;2023-06-14T14:46:21;21.20;99.90
3100;DHT22;1560;52.746;13.474;2023-06-14T14:48:50;21.30;99.90
3100;DHT22;1560;52.746;13.474;2023-06-14T14:53:55;21.20;99.90
3100;DHT22;1560;52.746;13.474;2023-06-14T14:56:24;21.20;99.90
3100;DHT22;1560;52.746;13.474;2023-06-14T14:58:53;21.30;99.90
3100;DHT22;1560;52.746;13.474;2023-06-14T15:01:22;21.20;99.90
3100;DHT22;1560;52.746;13.474;2023-06-14T15:03:51;21.20;99.90
3100;DHT22;1560;52.746;13.474;2023-06-14T15:06:20;21.30;99.90
3100;DHT22;1560;52.746;13.474;2023-06-14T15:11:24;21.20;99.90
3100;DHT22;1560;52.746;13.474;2023-06-14T15:13:54;21.30;99.90
3100;DHT22;1560;52.746;13.474;2023-06-14T15:16:23;21.40;99.90
3100;DHT22;1560;52.746;13.474;2023-06-14T15:18:52;21.50;99.90
3100;DHT22;1560;52.746;13.474;2023-06-14T15:21:21;21.50;99.90
3100;DHT22;1560;52.746;13.474;2023-06-14T15:26:26;21.40;99.90
3100;DHT22;1560;52.746;13.474;2023-06-14T15:28:56;21.50;99.90
3100;DHT22;1560;52.746;13.474;2023-06-14T15:31:25;21.60;99.90
3100;DHT22;1560;52.746;13.474;2023-06-14T15:33:56;21.60;99.90
3100;DHT22;1560;52.746;13.474;2023-06-14T15:39:02;21.60;99.90
3100;DHT22;1560;52.746;13.474;2023-06-14T15:44:07;21.70;99.90
3100;DHT22;1560;52.746;13.474;2023-06-14T15:46:37;21.80;99.90
3100;DHT22;1560;52.746;13.474;2023-06-14T15:51:46;21.70;99.90
3100;DHT22;1560;52.746;13.474;2023-06-14T15:54:15;21.60;99.90
3100;DHT22;1560;52.746;13.474;2023-06-14T15:56:44;21.60;99.90
3100;DHT22;1560;52.746;13.474;2023-06-14T15:59:12;21.60;99.90
3100;DHT22;1560;52.746;13.474;2023-06-14T16:04:17;21.40;99.90
3100;DHT22;1560;52.746;13.474;2023-06-14T16:06:46;21.40;99.90
3100;DHT22;1560;52.746;13.474;2023-06-14T16:09:15;21.30;99.90
3100;DHT22;1560;52.746;13.474;2023-06-14T16:14:20;21.20;99.90
3100;DHT22;1560;52.746;13.474;2023-06-14T16:16:49;21.20;99.90
3100;DHT22;1560;52.746;13.474;2023-06-14T16:21:54;21.30;99.90
3100;DHT22;1560;52.746;13.474;2023-06-14T16:24:23;21.20;99.90
3100;DHT22;1560;52.746;13.474;2023-06-14T16:29:29;21.20;99.90
3100;DHT22;1560;52.746;13.474;2023-06-14T16:31:58;21.10;99.90
3100;DHT22;1560;52.746;13.474;2023-06-14T16:34:27;21.00;99.90
3100;DHT22;1560;52.746;13.474;2023-06-14T16:36:57;21.00;99.90
3100;DHT22;1560;52.746;13.474;2023-06-14T16:39:26;20.80;99.90
3100;DHT22;1560;52.746;13.474;2023-06-14T16:41:55;20.80;99.90
3100;DHT22;1560;52.746;13.474;2023-06-14T16:44:24;20.80;99.90
3100;DHT22;1560;52.746;13.474;2023-06-14T16:46:53;20.70;99.90
3100;DHT22;1560;52.746;13.474;2023-06-14T16:49:22;20.70;99.90
3100;DHT22;1560;52.746;13.474;2023-06-14T16:51:51;20.70;99.90
3100;DHT22;1560;52.746;13.474;2023-06-14T16:54:20;20.70;99.90
3100;DHT22;1560;52.746;13.474;2023-06-14T16:56:49;20.70;99.90
3100;DHT22;1560;52.746;13.474;2023-06-14T17:26:25;20.60;99.90
3100;DHT22;1560;52.746;13.474;2023-06-14T17:32:47;20.60;99.90
3100;DHT22;1560;52.746;13.474;2023-06-14T17:52:56;20.40;99.90
3100;DHT22;1560;52.746;13.474;2023-06-14T18:07:44;20.20;99.90
3100;DHT22;1560;52.746;13.474;2023-06-14T18:13:19;20.20;99.90
3100;DHT22;1560;52.746;13.474;2023-06-14T18:16:00;20.20;99.90
3100;DHT22;1560;52.746;13.474;2023-06-14T18:18:29;20.20;99.90
3100;DHT22;1560;52.746;13.474;2023-06-14T18:20:58;20.20;99.90
3100;DHT22;1560;52.746;13.474;2023-06-14T18:23:40;20.20;99.90
3100;DHT22;1560;52.746;13.474;2023-06-14T18:26:15;20.10;99.90
3100;DHT22;1560;52.746;13.474;2023-06-14T19:13:09;19.60;99.90
3100;DHT22;1560;52.746;13.474;2023-06-14T19:18:21;19.50;99.90
3100;DHT22;1560;52.746;13.474;2023-06-14T19:23:27;19.50;99.90
3100;DHT22;1560;52.746;13.474;2023-06-14T19:26:05;19.50;99.90
3100;DHT22;1560;52.746;13.474;2023-06-14T19:28:25;19.50;99.90
3100;DHT22;1560;52.746;13.474;2023-06-14T19:30:55;19.50;99.90
3100;DHT22;1560;52.746;13.474;2023-06-14T19:33:24;19.50;99.90
3100;DHT22;1560;52.746;13.474;2023-06-14T19:35:53;19.40;99.90
3100;DHT22;1560;52.746;13.474;2023-06-14T19:38:22;19.40;99.90
3100;DHT22;1560;52.746;13.474;2023-06-14T19:41:19;19.30;99.90
3100;DHT22;1560;52.746;13.474;2023-06-14T19:43:48;19.20;99.90
3100;DHT22;1560;52.746;13.474;2023-06-14T19:46:19;19.20;99.90
3100;DHT22;1560;52.746;13.474;2023-06-14T19:48:48;19.20;99.90
3100;DHT22;1560;52.746;13.474;2023-06-14T19:51:18;19.20;99.90
3100;DHT22;1560;52.746;13.474;2023-06-14T19:53:48;19.20;99.90
3100;DHT22;1560;52.746;13.474;2023-06-14T19:56:17;19.20;99.90
3100;DHT22;1560;52.746;13.474;2023-06-14T19:58:46;19.20;99.90
3100;DHT22;1560;52.746;13.474;2023-06-14T20:01:15;19.20;99.90
3100;DHT22;1560;52.746;13.474;2023-06-14T20:03:44;19.20;99.90
3100;DHT22;1560;52.746;13.474;2023-06-14T20:06:14;19.20;99.90
3100;DHT22;1560;52.746;13.474;2023-06-14T20:11:19;19.20;99.90
3100;DHT22;1560;52.746;13.474;2023-06-14T20:13:48;19.10;99.90
3100;DHT22;1560;52.746;13.474;2023-06-14T20:16:17;19.10;99.90
3100;DHT22;1560;52.746;13.474;2023-06-14T20:18:46;19.10;99.90
3100;DHT22;1560;52.746;13.474;2023-06-14T20:21:14;19.10;99.90
3100;DHT22;1560;52.746;13.474;2023-06-14T20:23:43;19.10;99.90
3100;DHT22;1560;52.746;13.474;2023-06-14T20:26:12;19.10;99.90
3100;DHT22;1560;52.746;13.474;2023-06-14T20:31:17;19.10;99.90
3100;DHT22;1560;52.746;13.474;2023-06-14T20:33:46;19.10;99.90
3100;DHT22;1560;52.746;13.474;2023-06-14T20:36:15;19.00;99.90
3100;DHT22;1560;52.746;13.474;2023-06-14T20:38:45;19.10;99.90
3100;DHT22;1560;52.746;13.474;2023-06-14T20:41:14;19.10;99.90
3100;DHT22;1560;52.746;13.474;2023-06-14T20:46:19;19.00;99.90
3100;DHT22;1560;52.746;13.474;2023-06-14T20:48:48;18.90;99.90
3100;DHT22;1560;52.746;13.474;2023-06-14T20:51:17;18.80;99.90
3100;DHT22;1560;52.746;13.474;2023-06-14T20:56:22;18.70;99.90
3100;DHT22;1560;52.746;13.474;2023-06-14T21:01:27;18.60;99.90
3100;DHT22;1560;52.746;13.474;2023-06-14T21:03:57;18.60;99.90
3100;DHT22;1560;52.746;13.474;2023-06-14T21:06:26;18.60;99.90
3100;DHT22;1560;52.746;13.474;2023-06-14T21:11:33;18.50;99.90
3100;DHT22;1560;52.746;13.474;2023-06-14T21:16:39;18.40;99.90
3100;DHT22;1560;52.746;13.474;2023-06-14T21:19:08;18.30;99.90
3100;DHT22;1560;52.746;13.474;2023-06-14T21:21:36;18.30;99.90
3100;DHT22;1560;52.746;13.474;2023-06-14T21:26:41;18.30;99.90
3100;DHT22;1560;52.746;13.474;2023-06-14T21:29:10;18.30;99.90
3100;DHT22;1560;52.746;13.474;2023-06-14T21:31:39;18.40;99.90
3100;DHT22;1560;52.746;13.474;2023-06-14T21:36:44;18.40;99.90
3100;DHT22;1560;52.746;13.474;2023-06-14T21:39:13;18.30;99.90
3100;DHT22;1560;52.746;13.474;2023-06-14T21:41:42;18.30;99.90
3100;DHT22;1560;52.746;13.474;2023-06-14T21:46:47;18.30;99.90
3100;DHT22;1560;52.746;13.474;2023-06-14T21:49:16;18.30;99.90
3100;DHT22;1560;52.746;13.474;2023-06-14T21:51:44;18.30;99.90
3100;DHT22;1560;52.746;13.474;2023-06-14T21:54:13;18.20;99.90
3100;DHT22;1560;52.746;13.474;2023-06-14T21:56:42;18.20;99.90